sensor_id;sensor_type;location;lat;lon;timestamp;pressure;altitude;pressure_sealevel;temperature
27986;BMP280;15453;53.692;10.168;2023-08-21T00:00:44;101931.94;;;24.14
27986;BMP280;15453;53.692;10.168;2023-08-21T00:03:09;101928.94;;;24.11
27986;BMP280;15453;53.692;10.168;2023-08-21T00:05:34;101927.03;;;24.06
27986;BMP280;15453;53.692;10.168;2023-08-21T00:08:00;101927.03;;;24.06
27986;BMP280;15453;53.692;10.168;2023-08-21T00:10:25;101928.91;;;23.97
27986;BMP280;15453;53.692;10.168;2023-08-21T00:12:50;101928.91;;;23.97
27986;BMP280;15453;53.692;10.168;2023-08-21T00:15:16;101920.06;;;23.90
27986;BMP280;15453;53.692;10.168;2023-08-21T00:17:41;101916.53;;;23.85
27986;BMP280;15453;53.692;10.168;2023-08-21T00:20:06;101910.22;;;23.79
27986;BMP280;15453;53.692;10.168;2023-08-21T00:22:34;101913.63;;;23.76
27986;BMP280;15453;53.692;10.168;2023-08-21T00:25:00;101907.31;;;23.71
27986;BMP280;15453;53.692;10.168;2023-08-21T00:27:25;101903.16;;;23.68
27986;BMP280;15453;53.692;10.168;2023-08-21T00:29:51;101917.75;;;23.65
27986;BMP280;15453;53.692;10.168;2023-08-21T00:32:16;101916.41;;;23.63
27986;BMP280;15453;53.692;10.168;2023-08-21T00:34:41;101919.00;;;23.59
27986;BMP280;15453;53.692;10.168;2023-08-21T00:37:07;101920.44;;;23.57
27986;BMP280;15453;53.692;10.168;2023-08-21T00:39:32;101913.50;;;23.54
27986;BMP280;15453;53.692;10.168;2023-08-21T00:41:57;101917.19;;;23.50
27986;BMP280;15453;53.692;10.168;2023-08-21T00:44:22;101924.25;;;23.47
27986;BMP280;15453;53.692;10.168;2023-08-21T00:46:47;101922.06;;;23.44
27986;BMP280;15453;53.692;10.168;2023-08-21T00:49:13;101926.59;;;23.40
27986;BMP280;15453;53.692;10.168;2023-08-21T00:51:38;101921.59;;;23.37
27986;BMP280;15453;53.692;10.168;2023-08-21T00:54:04;101921.69;;;23.32
27986;BMP280;15453;53.692;10.168;2023-08-21T00:56:29;101916.75;;;23.29
27986;BMP280;15453;53.692;10.168;2023-08-21T00:58:55;101920.13;;;23.26
27986;BMP280;15453;53.692;10.168;2023-08-21T01:01:24;101925.19;;;23.24
27986;BMP280;15453;53.692;10.168;2023-08-21T01:03:50;101923.03;;;23.21
27986;BMP280;15453;53.692;10.168;2023-08-21T01:06:16;101923.03;;;23.21
27986;BMP280;15453;53.692;10.168;2023-08-21T01:09:06;101918.59;;;23.15
27986;BMP280;15453;53.692;10.168;2023-08-21T01:11:47;101925.94;;;23.11
27986;BMP280;15453;53.692;10.168;2023-08-21T01:14:36;101925.94;;;23.11
27986;BMP280;15453;53.692;10.168;2023-08-21T01:17:04;101921.03;;;23.03
27986;BMP280;15453;53.692;10.168;2023-08-21T01:19:38;101919.38;;;23.02
27986;BMP280;15453;53.692;10.168;2023-08-21T01:22:04;101924.47;;;23.00
27986;BMP280;15453;53.692;10.168;2023-08-21T01:24:29;101925.88;;;22.98
27986;BMP280;15453;53.692;10.168;2023-08-21T01:26:54;101926.50;;;22.95
27986;BMP280;15453;53.692;10.168;2023-08-21T01:29:20;101927.94;;;22.92
27986;BMP280;15453;53.692;10.168;2023-08-21T01:31:50;101922.09;;;22.89
27986;BMP280;15453;53.692;10.168;2023-08-21T01:34:17;101917.16;;;22.86
27986;BMP280;15453;53.692;10.168;2023-08-21T01:36:43;101917.75;;;22.83
27986;BMP280;15453;53.692;10.168;2023-08-21T01:39:09;101935.94;;;22.80
27986;BMP280;15453;53.692;10.168;2023-08-21T01:41:34;101918.44;;;22.75
27986;BMP280;15453;53.692;10.168;2023-08-21T01:43:59;101926.25;;;22.73
27986;BMP280;15453;53.692;10.168;2023-08-21T01:46:25;101925.19;;;22.69
27986;BMP280;15453;53.692;10.168;2023-08-21T01:48:50;101926.34;;;22.68
27986;BMP280;15453;53.692;10.168;2023-08-21T01:51:15;101934.50;;;22.64
27986;BMP280;15453;53.692;10.168;2023-08-21T01:53:40;101933.66;;;22.64
27986;BMP280;15453;53.692;10.168;2023-08-21T01:56:05;101933.66;;;22.64
27986;BMP280;15453;53.692;10.168;2023-08-21T01:58:31;101928.44;;;22.57
27986;BMP280;15453;53.692;10.168;2023-08-21T02:00:56;101927.94;;;22.55
27986;BMP280;15453;53.692;10.168;2023-08-21T02:03:25;101929.38;;;22.53
27986;BMP280;15453;53.692;10.168;2023-08-21T02:05:50;101930.81;;;22.50
27986;BMP280;15453;53.692;10.168;2023-08-21T02:08:17;101923.53;;;22.49
27986;BMP280;15453;53.692;10.168;2023-08-21T02:10:51;101926.94;;;22.46
27986;BMP280;15453;53.692;10.168;2023-08-21T02:13:18;101926.66;;;22.43
27986;BMP280;15453;53.692;10.168;2023-08-21T02:15:43;101931.44;;;22.42
27986;BMP280;15453;53.692;10.168;2023-08-21T02:18:09;101920.84;;;22.39
27986;BMP280;15453;53.692;10.168;2023-08-21T02:20:34;101928.16;;;22.35
27986;BMP280;15453;53.692;10.168;2023-08-21T02:22:59;101928.16;;;22.35
27986;BMP280;15453;53.692;10.168;2023-08-21T02:25:25;101932.97;;;22.30
27986;BMP280;15453;53.692;10.168;2023-08-21T02:27:50;101938.84;;;22.28
27986;BMP280;15453;53.692;10.168;2023-08-21T02:30:15;101931.09;;;22.25
27986;BMP280;15453;53.692;10.168;2023-08-21T02:32:40;101936.44;;;22.22
27986;BMP280;15453;53.692;10.168;2023-08-21T02:35:07;101932.56;;;22.17
27986;BMP280;15453;53.692;10.168;2023-08-21T02:37:32;101925.63;;;22.15
27986;BMP280;15453;53.692;10.168;2023-08-21T02:39:58;101931.78;;;22.12
27986;BMP280;15453;53.692;10.168;2023-08-21T02:42:25;101936.00;;;22.09
27986;BMP280;15453;53.692;10.168;2023-08-21T02:44:50;101931.88;;;22.07
27986;BMP280;15453;53.692;10.168;2023-08-21T02:47:15;101931.63;;;22.03
27986;BMP280;15453;53.692;10.168;2023-08-21T02:49:40;101929.44;;;22.00
27986;BMP280;15453;53.692;10.168;2023-08-21T02:52:05;101932.00;;;21.97
27986;BMP280;15453;53.692;10.168;2023-08-21T02:54:31;101934.22;;;21.95
27986;BMP280;15453;53.692;10.168;2023-08-21T02:56:56;101931.72;;;21.93
27986;BMP280;15453;53.692;10.168;2023-08-21T02:59:21;101937.63;;;21.92
27986;BMP280;15453;53.692;10.168;2023-08-21T03:01:46;101939.06;;;21.89
27986;BMP280;15453;53.692;10.168;2023-08-21T03:04:12;101939.06;;;21.89
27986;BMP280;15453;53.692;10.168;2023-08-21T03:06:37;101946.38;;;21.85
27986;BMP280;15453;53.692;10.168;2023-08-21T03:09:02;101935.50;;;21.84
27986;BMP280;15453;53.692;10.168;2023-08-21T03:11:28;101942.50;;;21.81
27986;BMP280;15453;53.692;10.168;2023-08-21T03:13:53;101943.31;;;21.82
27986;BMP280;15453;53.692;10.168;2023-08-21T03:16:19;101943.31;;;21.82
27986;BMP280;15453;53.692;10.168;2023-08-21T03:18:55;101948.09;;;21.76
27986;BMP280;15453;53.692;10.168;2023-08-21T03:21:22;101943.13;;;21.73
27986;BMP280;15453;53.692;10.168;2023-08-21T03:23:50;101936.72;;;21.73
27986;BMP280;15453;53.692;10.168;2023-08-21T03:26:16;101945.09;;;21.73
27986;BMP280;15453;53.692;10.168;2023-08-21T03:28:41;101937.84;;;21.72
27986;BMP280;15453;53.692;10.168;2023-08-21T03:31:06;101941.78;;;21.71
27986;BMP280;15453;53.692;10.168;2023-08-21T03:33:32;101944.81;;;21.69
27986;BMP280;15453;53.692;10.168;2023-08-21T03:35:57;101943.72;;;21.70
27986;BMP280;15453;53.692;10.168;2023-08-21T03:38:22;101943.72;;;21.70
27986;BMP280;15453;53.692;10.168;2023-08-21T03:40:47;101937.03;;;21.66
27986;BMP280;15453;53.692;10.168;2023-08-21T03:43:13;101936.19;;;21.66
27986;BMP280;15453;53.692;10.168;2023-08-21T03:45:38;101930.38;;;21.62
27986;BMP280;15453;53.692;10.168;2023-08-21T03:48:03;101935.97;;;21.62
27986;BMP280;15453;53.692;10.168;2023-08-21T03:50:29;101939.88;;;21.61
27986;BMP280;15453;53.692;10.168;2023-08-21T03:52:54;101938.75;;;21.62
27986;BMP280;15453;53.692;10.168;2023-08-21T03:55:20;101938.75;;;21.62
27986;BMP280;15453;53.692;10.168;2023-08-21T03:57:45;101943.25;;;21.58
27986;BMP280;15453;53.692;10.168;2023-08-21T04:00:11;101942.41;;;21.58
27986;BMP280;15453;53.692;10.168;2023-08-21T04:02:37;101943.81;;;21.55
27986;BMP280;15453;53.692;10.168;2023-08-21T04:05:02;101946.59;;;21.55
27986;BMP280;15453;53.692;10.168;2023-08-21T04:07:28;101946.59;;;21.55
27986;BMP280;15453;53.692;10.168;2023-08-21T04:09:53;101941.63;;;21.52
27986;BMP280;15453;53.692;10.168;2023-08-21T04:12:18;101946.66;;;21.50
27986;BMP280;15453;53.692;10.168;2023-08-21T04:14:44;101947.78;;;21.49
27986;BMP280;15453;53.692;10.168;2023-08-21T04:17:09;101943.63;;;21.47
27986;BMP280;15453;53.692;10.168;2023-08-21T04:19:34;101944.78;;;21.46
27986;BMP280;15453;53.692;10.168;2023-08-21T04:21:59;101945.34;;;21.43
27986;BMP280;15453;53.692;10.168;2023-08-21T04:24:25;101943.69;;;21.42
27986;BMP280;15453;53.692;10.168;2023-08-21T04:26:51;101943.69;;;21.42
27986;BMP280;15453;53.692;10.168;2023-08-21T04:29:16;101946.22;;;21.38
27986;BMP280;15453;53.692;10.168;2023-08-21T04:31:41;101946.22;;;21.38
27986;BMP280;15453;53.692;10.168;2023-08-21T04:34:07;101955.19;;;21.35
27986;BMP280;15453;53.692;10.168;2023-08-21T04:36:32;101960.19;;;21.33
27986;BMP280;15453;53.692;10.168;2023-08-21T04:38:57;101960.19;;;21.33
27986;BMP280;15453;53.692;10.168;2023-08-21T04:41:22;101957.97;;;21.30
27986;BMP280;15453;53.692;10.168;2023-08-21T04:43:48;101957.97;;;21.30
27986;BMP280;15453;53.692;10.168;2023-08-21T04:46:13;101962.47;;;21.26
27986;BMP280;15453;53.692;10.168;2023-08-21T04:48:39;101948.84;;;21.25
27986;BMP280;15453;53.692;10.168;2023-08-21T04:51:04;101959.16;;;21.24
27986;BMP280;15453;53.692;10.168;2023-08-21T04:53:29;101954.72;;;21.23
27986;BMP280;15453;53.692;10.168;2023-08-21T04:55:58;101965.59;;;21.25
27986;BMP280;15453;53.692;10.168;2023-08-21T04:58:24;101957.22;;;21.25
27986;BMP280;15453;53.692;10.168;2023-08-21T05:00:49;101963.31;;;21.27
27986;BMP280;15453;53.692;10.168;2023-08-21T05:03:14;101964.97;;;21.28
27986;BMP280;15453;53.692;10.168;2023-08-21T05:05:40;101964.97;;;21.28
27986;BMP280;15453;53.692;10.168;2023-08-21T05:08:05;101955.53;;;21.24
27986;BMP280;15453;53.692;10.168;2023-08-21T05:10:30;101974.19;;;21.28
27986;BMP280;15453;53.692;10.168;2023-08-21T05:12:57;101974.19;;;21.28
27986;BMP280;15453;53.692;10.168;2023-08-21T05:15:22;101962.47;;;21.26
27986;BMP280;15453;53.692;10.168;2023-08-21T05:17:47;101973.59;;;21.31
27986;BMP280;15453;53.692;10.168;2023-08-21T05:20:13;101973.59;;;21.31
27986;BMP280;15453;53.692;10.168;2023-08-21T05:22:40;101968.59;;;21.28
27986;BMP280;15453;53.692;10.168;2023-08-21T05:25:06;101963.56;;;21.30
27986;BMP280;15453;53.692;10.168;2023-08-21T05:27:31;101956.56;;;21.33
27986;BMP280;15453;53.692;10.168;2023-08-21T05:29:56;101961.84;;;21.34
27986;BMP280;15453;53.692;10.168;2023-08-21T05:32:22;101968.22;;;21.40
27986;BMP280;15453;53.692;10.168;2023-08-21T05:34:47;101968.22;;;21.40
27986;BMP280;15453;53.692;10.168;2023-08-21T05:37:12;101961.84;;;21.39
27986;BMP280;15453;53.692;10.168;2023-08-21T05:39:37;101965.66;;;21.48
27986;BMP280;15453;53.692;10.168;2023-08-21T05:42:03;101965.66;;;21.48
27986;BMP280;15453;53.692;10.168;2023-08-21T05:44:28;101962.88;;;21.48
27986;BMP280;15453;53.692;10.168;2023-08-21T05:46:53;101961.44;;;21.51
27986;BMP280;15453;53.692;10.168;2023-08-21T05:49:19;101966.41;;;21.54
27986;BMP280;15453;53.692;10.168;2023-08-21T05:51:44;101965.56;;;21.58
27986;BMP280;15453;53.692;10.168;2023-08-21T05:54:09;101975.28;;;21.61
27986;BMP280;15453;53.692;10.168;2023-08-21T05:56:35;101964.41;;;21.64
27986;BMP280;15453;53.692;10.168;2023-08-21T05:59:00;101968.19;;;21.78
27986;BMP280;15453;53.692;10.168;2023-08-21T06:01:26;101968.19;;;21.78
27986;BMP280;15453;53.692;10.168;2023-08-21T06:03:51;101974.50;;;21.89
27986;BMP280;15453;53.692;10.168;2023-08-21T06:06:16;101974.50;;;21.89
27986;BMP280;15453;53.692;10.168;2023-08-21T06:08:41;101968.63;;;21.90
27986;BMP280;15453;53.692;10.168;2023-08-21T06:11:07;101973.28;;;21.95
27986;BMP280;15453;53.692;10.168;2023-08-21T06:13:32;101972.41;;;21.99
27986;BMP280;15453;53.692;10.168;2023-08-21T06:15:57;101977.09;;;22.04
27986;BMP280;15453;53.692;10.168;2023-08-21T06:18:23;101976.22;;;22.08
27986;BMP280;15453;53.692;10.168;2023-08-21T06:20:49;101979.50;;;22.16
27986;BMP280;15453;53.692;10.168;2023-08-21T06:23:18;101976.94;;;22.19
27986;BMP280;15453;53.692;10.168;2023-08-21T06:25:43;101985.59;;;22.17
27986;BMP280;15453;53.692;10.168;2023-08-21T06:28:09;101989.81;;;22.39
27986;BMP280;15453;53.692;10.168;2023-08-21T06:30:34;101989.81;;;22.39
27986;BMP280;15453;53.692;10.168;2023-08-21T06:32:59;101980.31;;;22.40
27986;BMP280;15453;53.692;10.168;2023-08-21T06:35:25;101985.84;;;22.45
27986;BMP280;15453;53.692;10.168;2023-08-21T06:37:50;101986.38;;;22.47
27986;BMP280;15453;53.692;10.168;2023-08-21T06:40:15;101982.72;;;22.51
27986;BMP280;15453;53.692;10.168;2023-08-21T06:42:40;101983.41;;;22.62
27986;BMP280;15453;53.692;10.168;2023-08-21T06:45:06;101983.41;;;22.62
27986;BMP280;15453;53.692;10.168;2023-08-21T06:47:32;101983.94;;;22.64
27986;BMP280;15453;53.692;10.168;2023-08-21T06:49:58;101990.59;;;22.68
27986;BMP280;15453;53.692;10.168;2023-08-21T06:52:25;101984.09;;;22.72
27986;BMP280;15453;53.692;10.168;2023-08-21T06:54:50;101995.97;;;22.83
27986;BMP280;15453;53.692;10.168;2023-08-21T06:57:16;101995.97;;;22.83
27986;BMP280;15453;53.692;10.168;2023-08-21T06:59:41;102001.56;;;22.83
27986;BMP280;15453;53.692;10.168;2023-08-21T07:02:06;101996.13;;;22.91
27986;BMP280;15453;53.692;10.168;2023-08-21T07:04:32;101996.13;;;22.91
27986;BMP280;15453;53.692;10.168;2023-08-21T07:06:58;102003.81;;;22.99
27986;BMP280;15453;53.692;10.168;2023-08-21T07:09:24;102003.81;;;22.99
27986;BMP280;15453;53.692;10.168;2023-08-21T07:11:49;101998.78;;;23.01
27986;BMP280;15453;53.692;10.168;2023-08-21T07:14:14;102000.66;;;23.06
27986;BMP280;15453;53.692;10.168;2023-08-21T07:16:40;102002.25;;;23.12
27986;BMP280;15453;53.692;10.168;2023-08-21T07:19:05;102006.41;;;23.14
27986;BMP280;15453;53.692;10.168;2023-08-21T07:21:30;101999.06;;;23.18
27986;BMP280;15453;53.692;10.168;2023-08-21T07:23:55;101990.13;;;23.21
27986;BMP280;15453;53.692;10.168;2023-08-21T07:26:21;101986.69;;;23.24
27986;BMP280;15453;53.692;10.168;2023-08-21T07:28:46;101989.75;;;23.28
27986;BMP280;15453;53.692;10.168;2023-08-21T07:31:12;101992.75;;;23.31
27986;BMP280;15453;53.692;10.168;2023-08-21T07:33:37;101992.94;;;23.35
27986;BMP280;15453;53.692;10.168;2023-08-21T07:36:04;101994.00;;;23.39
27986;BMP280;15453;53.692;10.168;2023-08-21T07:38:30;101999.00;;;23.42
27986;BMP280;15453;53.692;10.168;2023-08-21T07:41:11;101999.22;;;23.45
27986;BMP280;15453;53.692;10.168;2023-08-21T07:43:39;101996.13;;;23.47
27986;BMP280;15453;53.692;10.168;2023-08-21T07:46:06;102002.25;;;23.49
27986;BMP280;15453;53.692;10.168;2023-08-21T07:48:32;101994.91;;;23.53
27986;BMP280;15453;53.692;10.168;2023-08-21T07:50:57;101997.06;;;23.56
27986;BMP280;15453;53.692;10.168;2023-08-21T07:53:23;101999.56;;;23.57
27986;BMP280;15453;53.692;10.168;2023-08-21T07:55:49;101999.81;;;23.61
27986;BMP280;15453;53.692;10.168;2023-08-21T07:58:14;101996.69;;;23.62
27986;BMP280;15453;53.692;10.168;2023-08-21T08:00:40;101991.31;;;23.66
27986;BMP280;15453;53.692;10.168;2023-08-21T08:03:07;101993.81;;;23.67
27986;BMP280;15453;53.692;10.168;2023-08-21T08:05:33;101992.06;;;23.71
27986;BMP280;15453;53.692;10.168;2023-08-21T08:07:58;101993.13;;;23.75
27986;BMP280;15453;53.692;10.168;2023-08-21T08:10:24;101997.78;;;23.80
27986;BMP280;15453;53.692;10.168;2023-08-21T08:12:50;101992.91;;;23.85
27986;BMP280;15453;53.692;10.168;2023-08-21T08:15:16;101992.31;;;23.88
27986;BMP280;15453;53.692;10.168;2023-08-21T08:17:41;101990.03;;;23.90
27986;BMP280;15453;53.692;10.168;2023-08-21T08:20:07;101990.78;;;23.96
27986;BMP280;15453;53.692;10.168;2023-08-21T08:22:32;101992.69;;;24.00
27986;BMP280;15453;53.692;10.168;2023-08-21T08:24:57;101989.53;;;24.02
27986;BMP280;15453;53.692;10.168;2023-08-21T08:27:22;101988.63;;;24.06
27986;BMP280;15453;53.692;10.168;2023-08-21T08:29:49;101995.28;;;24.10
27986;BMP280;15453;53.692;10.168;2023-08-21T08:32:14;102001.00;;;24.19
27986;BMP280;15453;53.692;10.168;2023-08-21T08:34:39;102001.00;;;24.19
27986;BMP280;15453;53.692;10.168;2023-08-21T08:37:04;101996.09;;;24.24
27986;BMP280;15453;53.692;10.168;2023-08-21T08:39:30;101996.09;;;24.24
27986;BMP280;15453;53.692;10.168;2023-08-21T08:41:59;101995.28;;;24.24
27986;BMP280;15453;53.692;10.168;2023-08-21T08:44:29;101996.41;;;24.36
27986;BMP280;15453;53.692;10.168;2023-08-21T08:46:55;101997.16;;;24.42
27986;BMP280;15453;53.692;10.168;2023-08-21T08:49:22;101997.16;;;24.42
27986;BMP280;15453;53.692;10.168;2023-08-21T08:51:49;101996.53;;;24.45
27986;BMP280;15453;53.692;10.168;2023-08-21T08:54:16;101991.66;;;24.50
27986;BMP280;15453;53.692;10.168;2023-08-21T08:56:41;101999.97;;;24.55
27986;BMP280;15453;53.692;10.168;2023-08-21T08:59:07;102000.91;;;24.64
27986;BMP280;15453;53.692;10.168;2023-08-21T09:01:33;102012.19;;;24.73
27986;BMP280;15453;53.692;10.168;2023-08-21T09:03:58;101998.91;;;24.78
27986;BMP280;15453;53.692;10.168;2023-08-21T09:06:23;102004.44;;;24.83
27986;BMP280;15453;53.692;10.168;2023-08-21T09:08:55;102005.41;;;24.87
27986;BMP280;15453;53.692;10.168;2023-08-21T09:11:22;101995.59;;;24.90
27986;BMP280;15453;53.692;10.168;2023-08-21T09:13:49;101998.25;;;24.95
27986;BMP280;15453;53.692;10.168;2023-08-21T09:16:17;101995.66;;;24.98
27986;BMP280;15453;53.692;10.168;2023-08-21T09:18:49;101993.88;;;25.02
27986;BMP280;15453;53.692;10.168;2023-08-21T09:21:19;102001.34;;;25.07
27986;BMP280;15453;53.692;10.168;2023-08-21T09:23:44;102006.31;;;25.10
27986;BMP280;15453;53.692;10.168;2023-08-21T09:26:18;101997.81;;;25.15
27986;BMP280;15453;53.692;10.168;2023-08-21T09:28:43;102000.16;;;25.21
27986;BMP280;15453;53.692;10.168;2023-08-21T09:31:08;101998.03;;;25.27
27986;BMP280;15453;53.692;10.168;2023-08-21T09:33:34;102002.44;;;25.33
27986;BMP280;15453;53.692;10.168;2023-08-21T09:35:59;102002.63;;;25.36
27986;BMP280;15453;53.692;10.168;2023-08-21T09:38:26;102001.13;;;25.39
27986;BMP280;15453;53.692;10.168;2023-08-21T09:40:54;101993.75;;;25.43
27986;BMP280;15453;53.692;10.168;2023-08-21T09:43:20;101996.44;;;25.48
27986;BMP280;15453;53.692;10.168;2023-08-21T09:45:48;101993.00;;;25.51
27986;BMP280;15453;53.692;10.168;2023-08-21T09:48:14;101999.13;;;25.53
27986;BMP280;15453;53.692;10.168;2023-08-21T09:50:39;101995.34;;;25.57
27986;BMP280;15453;53.692;10.168;2023-08-21T09:53:08;102001.47;;;25.59
27986;BMP280;15453;53.692;10.168;2023-08-21T09:55:34;101996.38;;;25.61
27986;BMP280;15453;53.692;10.168;2023-08-21T09:58:01;101998.84;;;25.63
27986;BMP280;15453;53.692;10.168;2023-08-21T10:00:31;101993.25;;;25.63
27986;BMP280;15453;53.692;10.168;2023-08-21T10:03:00;101995.41;;;25.66
27986;BMP280;15453;53.692;10.168;2023-08-21T10:05:27;101994.78;;;25.69
27986;BMP280;15453;53.692;10.168;2023-08-21T10:07:55;101982.91;;;25.72
27986;BMP280;15453;53.692;10.168;2023-08-21T10:10:21;101987.56;;;25.76
27986;BMP280;15453;53.692;10.168;2023-08-21T10:12:48;101986.94;;;25.79
27986;BMP280;15453;53.692;10.168;2023-08-21T10:15:14;101988.44;;;25.85
27986;BMP280;15453;53.692;10.168;2023-08-21T10:17:43;101979.88;;;25.90
27986;BMP280;15453;53.692;10.168;2023-08-21T10:20:08;101983.09;;;25.97
27986;BMP280;15453;53.692;10.168;2023-08-21T10:22:44;101986.91;;;26.01
27986;BMP280;15453;53.692;10.168;2023-08-21T10:25:24;101989.88;;;26.05
27986;BMP280;15453;53.692;10.168;2023-08-21T10:27:59;101988.09;;;26.09
27986;BMP280;15453;53.692;10.168;2023-08-21T10:30:28;101976.53;;;26.10
27986;BMP280;15453;53.692;10.168;2023-08-21T10:32:58;101991.59;;;26.14
27986;BMP280;15453;53.692;10.168;2023-08-21T10:35:31;101988.28;;;26.12
27986;BMP280;15453;53.692;10.168;2023-08-21T10:38:12;101970.28;;;26.13
27986;BMP280;15453;53.692;10.168;2023-08-21T10:40:42;101988.94;;;26.18
27986;BMP280;15453;53.692;10.168;2023-08-21T10:43:46;101976.44;;;26.24
27986;BMP280;15453;53.692;10.168;2023-08-21T10:46:12;101985.56;;;26.29
27986;BMP280;15453;53.692;10.168;2023-08-21T10:48:38;101984.75;;;26.37
27986;BMP280;15453;53.692;10.168;2023-08-21T10:51:06;101983.44;;;26.43
27986;BMP280;15453;53.692;10.168;2023-08-21T10:53:33;101978.00;;;26.47
27986;BMP280;15453;53.692;10.168;2023-08-21T10:56:05;101985.47;;;26.51
27986;BMP280;15453;53.692;10.168;2023-08-21T10:58:37;101977.50;;;26.53
27986;BMP280;15453;53.692;10.168;2023-08-21T11:01:03;101985.50;;;26.60
27986;BMP280;15453;53.692;10.168;2023-08-21T11:03:28;101982.19;;;26.66
27986;BMP280;15453;53.692;10.168;2023-08-21T11:06:07;101970.00;;;26.71
27986;BMP280;15453;53.692;10.168;2023-08-21T11:08:34;101974.31;;;26.77
27986;BMP280;15453;53.692;10.168;2023-08-21T11:11:02;101976.47;;;26.89
27986;BMP280;15453;53.692;10.168;2023-08-21T11:13:28;101975.34;;;26.98
27986;BMP280;15453;53.692;10.168;2023-08-21T11:16:02;101970.88;;;27.06
27986;BMP280;15453;53.692;10.168;2023-08-21T11:18:36;101972.34;;;27.12
27986;BMP280;15453;53.692;10.168;2023-08-21T11:21:10;101977.34;;;27.23
27986;BMP280;15453;53.692;10.168;2023-08-21T11:23:37;101977.34;;;27.23
27986;BMP280;15453;53.692;10.168;2023-08-21T11:26:03;101967.56;;;27.29
27986;BMP280;15453;53.692;10.168;2023-08-21T11:28:29;101966.22;;;27.35
27986;BMP280;15453;53.692;10.168;2023-08-21T11:30:55;101960.63;;;27.44
27986;BMP280;15453;53.692;10.168;2023-08-21T11:33:21;101970.19;;;27.51
27986;BMP280;15453;53.692;10.168;2023-08-21T11:35:46;101966.22;;;27.61
27986;BMP280;15453;53.692;10.168;2023-08-21T11:38:21;101977.59;;;27.81
27986;BMP280;15453;53.692;10.168;2023-08-21T11:41:01;101977.59;;;27.81
27986;BMP280;15453;53.692;10.168;2023-08-21T11:43:40;101977.59;;;27.90
27986;BMP280;15453;53.692;10.168;2023-08-21T11:46:07;101969.59;;;28.00
27986;BMP280;15453;53.692;10.168;2023-08-21T11:48:33;101982.19;;;28.11
27986;BMP280;15453;53.692;10.168;2023-08-21T11:51:00;101974.19;;;28.22
27986;BMP280;15453;53.692;10.168;2023-08-21T11:53:31;101971.63;;;28.29
27986;BMP280;15453;53.692;10.168;2023-08-21T11:55:56;101975.94;;;28.35
27986;BMP280;15453;53.692;10.168;2023-08-21T11:58:21;101972.91;;;28.40
27986;BMP280;15453;53.692;10.168;2023-08-21T12:00:47;101965.81;;;28.42
27986;BMP280;15453;53.692;10.168;2023-08-21T12:03:17;101967.63;;;28.47
27986;BMP280;15453;53.692;10.168;2023-08-21T12:05:43;101971.53;;;28.54
27986;BMP280;15453;53.692;10.168;2023-08-21T12:08:09;101974.94;;;28.68
27986;BMP280;15453;53.692;10.168;2023-08-21T12:10:34;101974.94;;;28.68
27986;BMP280;15453;53.692;10.168;2023-08-21T12:12:59;101974.13;;;28.68
27986;BMP280;15453;53.692;10.168;2023-08-21T12:15:25;101974.13;;;28.68
27986;BMP280;15453;53.692;10.168;2023-08-21T12:17:50;101975.97;;;28.64
27986;BMP280;15453;53.692;10.168;2023-08-21T12:20:15;101978.13;;;28.67
27986;BMP280;15453;53.692;10.168;2023-08-21T12:22:40;101969.28;;;28.68
27986;BMP280;15453;53.692;10.168;2023-08-21T12:25:09;101966.84;;;28.67
27986;BMP280;15453;53.692;10.168;2023-08-21T12:27:35;101978.44;;;28.65
27986;BMP280;15453;53.692;10.168;2023-08-21T12:30:01;101969.84;;;28.62
27986;BMP280;15453;53.692;10.168;2023-08-21T12:32:26;101966.88;;;28.58
27986;BMP280;15453;53.692;10.168;2023-08-21T12:34:52;101973.19;;;28.55
27986;BMP280;15453;53.692;10.168;2023-08-21T12:37:17;101971.75;;;28.49
27986;BMP280;15453;53.692;10.168;2023-08-21T12:39:42;101972.09;;;28.48
27986;BMP280;15453;53.692;10.168;2023-08-21T12:42:08;101966.13;;;28.41
27986;BMP280;15453;53.692;10.168;2023-08-21T12:44:34;101971.47;;;28.34
27986;BMP280;15453;53.692;10.168;2023-08-21T12:46:59;101973.97;;;28.27
27986;BMP280;15453;53.692;10.168;2023-08-21T12:49:25;101974.19;;;28.22
27986;BMP280;15453;53.692;10.168;2023-08-21T12:51:50;101964.25;;;28.16
27986;BMP280;15453;53.692;10.168;2023-08-21T12:54:15;101964.25;;;28.16
27986;BMP280;15453;53.692;10.168;2023-08-21T12:56:40;101965.22;;;28.20
27986;BMP280;15453;53.692;10.168;2023-08-21T12:59:06;101967.16;;;28.28
27986;BMP280;15453;53.692;10.168;2023-08-21T13:01:31;101964.16;;;28.33
27986;BMP280;15453;53.692;10.168;2023-08-21T13:04:00;101960.50;;;28.41
27986;BMP280;15453;53.692;10.168;2023-08-21T13:06:25;101963.28;;;28.49
27986;BMP280;15453;53.692;10.168;2023-08-21T13:08:50;101976.75;;;28.73
27986;BMP280;15453;53.692;10.168;2023-08-21T13:11:16;101976.75;;;28.73
27986;BMP280;15453;53.692;10.168;2023-08-21T13:13:41;101965.25;;;28.78
27986;BMP280;15453;53.692;10.168;2023-08-21T13:16:06;101968.38;;;28.85
27986;BMP280;15453;53.692;10.168;2023-08-21T13:18:31;101966.31;;;28.94
27986;BMP280;15453;53.692;10.168;2023-08-21T13:20:57;101963.81;;;29.01
27986;BMP280;15453;53.692;10.168;2023-08-21T13:23:22;101951.97;;;29.07
27986;BMP280;15453;53.692;10.168;2023-08-21T13:25:48;101948.25;;;29.15
27986;BMP280;15453;53.692;10.168;2023-08-21T13:28:13;101955.72;;;29.32
27986;BMP280;15453;53.692;10.168;2023-08-21T13:30:39;101955.72;;;29.32
27986;BMP280;15453;53.692;10.168;2023-08-21T13:33:04;101953.84;;;29.36
27986;BMP280;15453;53.692;10.168;2023-08-21T13:35:30;101946.47;;;29.43
27986;BMP280;15453;53.692;10.168;2023-08-21T13:37:55;101946.38;;;29.52
27986;BMP280;15453;53.692;10.168;2023-08-21T13:40:21;101941.84;;;29.59